createdAt,value
2022-09-20T00:01:29.626Z,11.26
2022-09-20T00:03:59.393Z,11.21
2022-09-20T00:06:29.386Z,11.29
2022-09-20T00:08:57.878Z,11.07
2022-09-20T00:11:27.403Z,10.03
2022-09-20T00:13:56.578Z,11.15
2022-09-20T00:16:34.744Z,11.37
2022-09-20T00:19:06.532Z,11.16
2022-09-20T00:21:36.460Z,11.09
2022-09-20T00:24:04.327Z,11.12
2022-09-20T00:26:32.005Z,11.04
2022-09-20T00:29:00.145Z,11.00
2022-09-20T00:31:27.785Z,10.52
2022-09-20T00:34:15.904Z,10.18
2022-09-20T00:36:44.668Z,10.63
2022-09-20T00:39:14.221Z,11.14
2022-09-20T00:41:41.844Z,11.03
2022-09-20T00:44:47.791Z,11.08
2022-09-20T00:47:27.360Z,11.31
2022-09-20T00:50:00.353Z,11.36
2022-09-20T00:52:27.979Z,11.28
2022-09-20T00:54:57.097Z,10.94
2022-09-20T00:57:24.553Z,10.81
2022-09-20T00:59:53.019Z,11.00
2022-09-20T01:02:25.021Z,10.83
2022-09-20T01:04:52.860Z,10.66
2022-09-20T01:07:22.410Z,9.92
2022-09-20T01:09:51.102Z,9.57
2022-09-20T01:12:21.730Z,9.48
2022-09-20T01:14:50.996Z,9.46
2022-09-20T01:17:20.197Z,9.19
2022-09-20T01:20:06.729Z,9.42
2022-09-20T01:22:49.184Z,9.65
2022-09-20T01:25:54.649Z,9.21
2022-09-20T01:28:23.236Z,9.28
2022-09-20T01:31:07.520Z,9.50
2022-09-20T01:34:01.155Z,9.32
2022-09-20T01:36:40.380Z,9.67
2022-09-20T01:39:12.481Z,9.29
2022-09-20T01:41:53.830Z,9.72
2022-09-20T01:44:36.189Z,9.80
2022-09-20T01:47:12.304Z,10.53
2022-09-20T01:49:59.242Z,10.03
2022-09-20T01:52:32.503Z,9.67
2022-09-20T01:55:11.926Z,10.16
2022-09-20T01:58:00.116Z,10.98
2022-09-20T02:00:34.944Z,10.95
2022-09-20T02:03:31.404Z,11.65
2022-09-20T02:06:11.048Z,11.32
2022-09-20T02:09:04.524Z,11.84
2022-09-20T02:11:50.594Z,11.28
2022-09-20T02:14:48.188Z,11.92
2022-09-20T02:17:28.591Z,12.02
2022-09-20T02:20:21.107Z,12.14
2022-09-20T02:23:12.351Z,12.21
2022-09-20T02:25:46.481Z,12.32
2022-09-20T02:28:31.265Z,12.41
2022-09-20T02:31:05.813Z,12.05
2022-09-20T02:33:39.466Z,12.77
2022-09-20T02:36:15.774Z,12.26
2022-09-20T02:39:15.633Z,12.32
2022-09-20T02:42:08.674Z,12.17
2022-09-20T02:44:42.238Z,11.98
2022-09-20T02:47:32.360Z,12.11
2022-09-20T02:50:22.117Z,12.37
2022-09-20T02:53:18.949Z,12.36
2022-09-20T02:56:19.843Z,12.37
2022-09-20T02:58:53.396Z,12.17
2022-09-20T03:01:44.031Z,12.16
2022-09-20T03:04:33.277Z,11.98
2022-09-20T03:07:13.055Z,11.74
2022-09-20T03:10:11.252Z,10.98
2022-09-20T03:13:00.444Z,10.27
2022-09-20T03:16:09.035Z,10.81
2022-09-20T03:19:03.077Z,10.88
2022-09-20T03:21:52.438Z,10.77
2022-09-20T03:24:41.953Z,10.97
2022-09-20T03:27:18.731Z,10.70
2022-09-20T03:30:00.190Z,10.18
2022-09-20T03:33:01.625Z,9.93
2022-09-20T03:35:50.654Z,10.72
2022-09-20T03:38:20.960Z,11.67
2022-09-20T03:41:11.109Z,11.55
2022-09-20T03:43:57.159Z,12.12
2022-09-20T03:46:29.663Z,11.35
2022-09-20T03:49:15.928Z,10.23
2022-09-20T03:51:43.508Z,9.81
2022-09-20T03:54:30.152Z,10.72
2022-09-20T03:57:03.967Z,9.89
2022-09-20T03:59:40.230Z,9.60
2022-09-20T04:02:35.769Z,10.54
2022-09-20T04:05:29.685Z,10.07
2022-09-20T04:08:40.586Z,9.70
2022-09-20T04:11:32.585Z,9.70
2022-09-20T04:14:11.437Z,9.73
2022-09-20T04:17:00.649Z,9.46
2022-09-20T04:19:47.366Z,9.17
2022-09-20T04:22:16.266Z,9.03
2022-09-20T04:24:46.755Z,8.62
2022-09-20T04:27:22.992Z,8.82
2022-09-20T04:29:57.467Z,8.79
2022-09-20T04:32:25.012Z,8.77
2022-09-20T04:35:18.847Z,8.37
2022-09-20T04:37:46.961Z,8.55
2022-09-20T04:40:42.643Z,8.51
2022-09-20T04:43:33.055Z,8.78
2022-09-20T04:46:00.787Z,8.69
2022-09-20T04:48:58.118Z,9.28
2022-09-20T04:51:58.236Z,9.89
2022-09-20T04:54:35.060Z,10.30
2022-09-20T04:57:34.463Z,10.41
2022-09-20T05:00:09.509Z,10.56
2022-09-20T05:03:18.745Z,10.63
2022-09-20T05:06:19.729Z,10.22
2022-09-20T05:09:25.133Z,10.96
2022-09-20T05:12:11.078Z,10.48
2022-09-20T05:14:53.594Z,9.68
2022-09-20T05:17:38.622Z,9.80
2022-09-20T05:20:19.007Z,9.63
2022-09-20T05:23:08.879Z,9.72
2022-09-20T05:26:03.262Z,9.68
2022-09-20T05:28:40.938Z,9.42
2022-09-20T05:31:20.712Z,9.21
2022-09-20T05:33:53.947Z,10.26
2022-09-20T05:36:34.760Z,9.48
2022-09-20T05:39:37.102Z,9.34
2022-09-20T05:42:14.102Z,9.24
2022-09-20T05:45:04.550Z,9.84
2022-09-20T05:47:59.664Z,9.62
2022-09-20T05:50:54.751Z,9.99
2022-09-20T05:54:05.273Z,10.03
2022-09-20T05:57:05.622Z,10.53
2022-09-20T05:59:58.827Z,10.59
2022-09-20T06:02:47.931Z,11.01
2022-09-20T06:05:28.842Z,11.04
2022-09-20T06:08:15.782Z,10.89
2022-09-20T06:10:50.216Z,11.06
2022-09-20T06:13:44.433Z,11.10
2022-09-20T06:16:28.118Z,11.15
2022-09-20T06:19:37.374Z,10.47
2022-09-20T06:22:16.971Z,10.77
2022-09-20T06:25:08.682Z,11.13
2022-09-20T06:27:52.423Z,11.21
2022-09-20T06:30:26.398Z,11.31
2022-09-20T06:32:59.086Z,11.68
2022-09-20T06:35:35.429Z,12.19
2022-09-20T06:38:43.706Z,11.15
2022-09-20T06:41:31.293Z,11.28
2022-09-20T06:44:01.247Z,12.77
2022-09-20T06:46:30.313Z,12.62
2022-09-20T06:48:58.196Z,13.38
2022-09-20T06:51:28.236Z,12.69
2022-09-20T06:53:56.752Z,13.04
2022-09-20T06:56:27.606Z,12.65
2022-09-20T06:58:55.578Z,12.69
2022-09-20T07:01:30.079Z,12.47
2022-09-20T07:03:59.040Z,12.56
2022-09-20T07:06:26.808Z,11.34
2022-09-20T07:08:54.192Z,11.19
2022-09-20T07:11:23.302Z,12.24
2022-09-20T07:13:54.852Z,12.12
2022-09-20T07:16:22.672Z,12.56
2022-09-20T07:18:52.309Z,12.14
2022-09-20T07:21:21.089Z,12.30
2022-09-20T07:23:49.149Z,12.23
2022-09-20T07:26:20.600Z,12.30
2022-09-20T07:28:48.632Z,12.18
2022-09-20T07:31:18.139Z,12.79
2022-09-20T07:33:46.258Z,11.53
2022-09-20T07:36:16.447Z,11.99
2022-09-20T07:38:48.769Z,11.94
2022-09-20T07:41:17.085Z,12.27
2022-09-20T07:43:45.303Z,12.26
2022-09-20T07:46:15.909Z,12.04
2022-09-20T07:48:43.414Z,12.57
2022-09-20T07:51:13.716Z,12.94
2022-09-20T07:53:41.336Z,12.84
2022-09-20T07:56:14.756Z,12.81
2022-09-20T07:58:43.333Z,12.57
2022-09-20T08:01:13.604Z,12.51
2022-09-20T08:03:43.226Z,12.86
2022-09-20T08:06:11.899Z,13.47
2022-09-20T08:08:43.551Z,13.69
2022-09-20T08:11:15.554Z,13.79
2022-09-20T08:16:42.019Z,13.92
2022-09-20T08:19:23.515Z,13.22
2022-09-20T08:21:54.002Z,14.17
2022-09-20T08:24:24.007Z,13.96
2022-09-20T08:26:51.967Z,14.63
2022-09-20T08:29:19.622Z,14.99
2022-09-20T08:31:47.416Z,14.68
2022-09-20T08:34:17.051Z,14.97
2022-09-20T08:36:47.279Z,15.29
2022-09-20T08:42:33.342Z,14.15
2022-09-20T08:45:07.185Z,14.24
2022-09-20T08:47:37.313Z,14.29
2022-09-20T08:50:11.512Z,14.16
2022-09-20T08:52:40.813Z,13.94
2022-09-20T08:55:21.123Z,14.31
2022-09-20T08:57:56.748Z,14.00
2022-09-20T09:00:26.958Z,14.13
2022-09-20T09:02:56.522Z,14.35
2022-09-20T09:05:34.007Z,13.95
2022-09-20T09:08:16.765Z,14.48
2022-09-20T09:10:55.190Z,14.53
2022-09-20T09:13:48.713Z,14.68
2022-09-20T09:16:22.704Z,15.25
2022-09-20T09:18:51.716Z,14.94
2022-09-20T09:21:22.008Z,14.60
2022-09-20T09:23:53.172Z,14.63
2022-09-20T09:26:23.116Z,14.83
2022-09-20T09:29:19.713Z,14.83
2022-09-20T09:31:49.910Z,14.67
2022-09-20T09:34:38.978Z,15.30
2022-09-20T09:37:28.592Z,15.12
2022-09-20T09:40:31.726Z,15.01
2022-09-20T09:43:02.715Z,14.62
2022-09-20T09:45:36.298Z,13.97
2022-09-20T09:48:31.171Z,14.17
2022-09-20T09:51:23.479Z,14.48
2022-09-20T09:53:51.416Z,14.84
2022-09-20T09:56:35.276Z,15.33
2022-09-20T09:59:21.944Z,15.63
2022-09-20T10:02:10.549Z,15.78
2022-09-20T10:04:41.501Z,15.75
2022-09-20T10:07:22.043Z,15.56
2022-09-20T10:09:59.060Z,14.91
2022-09-20T10:12:30.165Z,15.71
2022-09-20T10:15:07.221Z,15.99
2022-09-20T10:17:52.782Z,16.25
2022-09-20T10:20:31.351Z,16.10
2022-09-20T10:24:02.736Z,16.12
2022-09-20T10:26:45.335Z,15.31
2022-09-20T10:29:29.115Z,15.29
2022-09-20T10:32:16.695Z,15.93
2022-09-20T10:35:23.125Z,16.08
2022-09-20T10:38:03.536Z,16.83
2022-09-20T10:41:04.265Z,16.24
2022-09-20T10:43:46.404Z,16.67
2022-09-20T10:46:33.479Z,16.59
2022-09-20T10:49:24.169Z,16.48
2022-09-20T10:52:04.287Z,16.85
2022-09-20T10:54:38.258Z,16.74
2022-09-20T10:57:19.252Z,16.11
2022-09-20T10:59:58.066Z,15.43
2022-09-20T11:02:54.278Z,14.18
2022-09-20T11:05:40.459Z,14.33
2022-09-20T11:08:22.762Z,13.96
2022-09-20T11:10:53.122Z,14.27
2022-09-20T11:13:40.499Z,14.43
2022-09-20T11:16:16.128Z,14.62
2022-09-20T11:18:48.500Z,15.27
2022-09-20T11:21:17.863Z,15.41
2022-09-20T11:23:55.277Z,15.30
2022-09-20T11:26:28.883Z,15.86
2022-09-20T11:29:01.787Z,16.08
2022-09-20T11:31:38.804Z,16.33
2022-09-20T11:34:21.801Z,16.37
2022-09-20T11:37:03.107Z,16.06
2022-09-20T11:39:37.979Z,15.59
2022-09-20T11:42:07.296Z,15.97
2022-09-20T11:44:41.435Z,15.89
2022-09-20T11:47:26.638Z,15.85
2022-09-20T11:50:35.215Z,15.49
2022-09-20T11:53:11.954Z,15.27
2022-09-20T11:55:39.192Z,15.13
2022-09-20T11:58:09.266Z,14.86
2022-09-20T12:00:41.453Z,14.65
2022-09-20T12:03:37.775Z,14.80
2022-09-20T12:06:20.894Z,14.94
2022-09-20T12:08:50.590Z,14.89
2022-09-20T12:11:30.705Z,14.72
2022-09-20T12:14:18.089Z,15.70
2022-09-20T12:16:49.581Z,15.69
2022-09-20T12:19:33.390Z,15.69
2022-09-20T12:22:00.920Z,15.83
2022-09-20T12:24:29.710Z,15.69
2022-09-20T12:27:04.973Z,15.58
2022-09-20T12:29:35.913Z,15.92
2022-09-20T12:32:49.319Z,15.34
2022-09-20T12:35:35.433Z,15.36
2022-09-20T12:38:21.424Z,15.75
2022-09-20T12:41:03.133Z,15.33
2022-09-20T12:43:32.153Z,15.49
2022-09-20T12:46:05.396Z,15.95
2022-09-20T12:48:37.308Z,15.42
2022-09-20T12:51:45.712Z,15.58
2022-09-20T12:54:14.020Z,15.56
2022-09-20T12:56:41.772Z,15.29
2022-09-20T12:59:27.750Z,14.98
2022-09-20T13:01:55.452Z,15.11
2022-09-20T13:05:01.519Z,15.37
2022-09-20T13:07:43.380Z,15.71
2022-09-20T13:10:24.146Z,15.44
2022-09-20T13:13:03.098Z,15.24
2022-09-20T13:15:33.158Z,15.48
2022-09-20T13:18:02.263Z,15.36
2022-09-20T13:20:34.986Z,14.94
2022-09-20T13:23:03.885Z,15.43
2022-09-20T13:25:42.830Z,15.48
2022-09-20T13:28:21.226Z,14.74
2022-09-20T13:30:48.887Z,14.22
2022-09-20T13:33:24.730Z,15.11
2022-09-20T13:35:58.763Z,15.01
2022-09-20T13:38:30.775Z,15.42
2022-09-20T13:41:06.331Z,15.44
2022-09-20T13:43:43.726Z,15.56
2022-09-20T13:46:13.733Z,15.92
2022-09-20T13:48:41.458Z,15.54
2022-09-20T13:51:24.571Z,15.25
2022-09-20T13:53:52.813Z,15.38
2022-09-20T13:56:23.313Z,14.48
2022-09-20T13:58:51.400Z,14.52
2022-09-20T14:01:28.460Z,14.90
2022-09-20T14:04:08.571Z,15.11
2022-09-20T14:06:36.240Z,14.93
2022-09-20T14:09:10.852Z,14.77
2022-09-20T14:11:39.312Z,14.77
2022-09-20T14:14:08.064Z,14.66
2022-09-20T14:16:41.181Z,14.91
2022-09-20T14:19:09.015Z,15.44
2022-09-20T14:21:37.513Z,15.66
2022-09-20T14:24:14.070Z,15.29
2022-09-20T14:26:42.947Z,15.46
2022-09-20T14:29:35.243Z,15.50
2022-09-20T14:32:06.910Z,15.73
2022-09-20T14:34:38.940Z,16.10
2022-09-20T14:37:12.377Z,15.79
2022-09-20T14:39:56.458Z,16.14
2022-09-20T14:42:33.193Z,16.34
2022-09-20T14:45:00.721Z,16.44
2022-09-20T14:47:37.034Z,17.08
2022-09-20T14:50:22.918Z,16.83
2022-09-20T14:53:21.560Z,15.83
2022-09-20T14:55:59.657Z,16.08
2022-09-20T14:58:27.607Z,14.96
2022-09-20T15:01:06.413Z,15.55
2022-09-20T15:03:40.403Z,14.89
2022-09-20T15:06:11.867Z,15.39
2022-09-20T15:08:45.441Z,14.93
2022-09-20T15:11:14.812Z,14.16
2022-09-20T15:13:42.755Z,14.11
2022-09-20T15:16:12.784Z,14.93
2022-09-20T15:18:42.411Z,14.12
2022-09-20T15:21:13.945Z,14.93
2022-09-20T15:23:41.396Z,13.94
2022-09-20T15:26:10.609Z,14.56
2022-09-20T15:28:38.349Z,13.66
2022-09-20T15:31:05.795Z,14.33
2022-09-20T15:33:33.501Z,14.12
2022-09-20T15:36:02.232Z,13.55
2022-09-20T15:38:29.770Z,13.17
2022-09-20T15:41:00.726Z,13.68
2022-09-20T15:43:30.382Z,13.89
2022-09-20T15:46:02.716Z,13.66
2022-09-20T15:48:30.837Z,13.72
2022-09-20T15:51:00.459Z,12.83
2022-09-20T15:53:32.146Z,12.96
2022-09-20T15:56:04.397Z,13.53
2022-09-20T15:58:36.298Z,13.03
2022-09-20T16:01:06.387Z,12.49
2022-09-20T16:03:36.545Z,13.08
2022-09-20T16:06:06.378Z,12.73
2022-09-20T16:08:36.362Z,12.84
2022-09-20T16:11:05.671Z,12.32
2022-09-20T16:13:33.307Z,12.56
2022-09-20T16:16:01.881Z,12.64
2022-09-20T16:18:48.454Z,12.69
2022-09-20T16:21:18.302Z,12.61
2022-09-20T16:23:53.760Z,12.29
2022-09-20T16:26:23.396Z,12.00
2022-09-20T16:28:51.032Z,12.27
2022-09-20T16:31:36.763Z,11.97
2022-09-20T16:34:07.509Z,12.03
2022-09-20T16:36:34.883Z,12.60
2022-09-20T16:39:03.240Z,13.14
2022-09-20T16:41:32.556Z,12.99
2022-09-20T16:44:00.095Z,13.84
2022-09-20T16:46:28.021Z,13.79
2022-09-20T16:48:57.061Z,14.27
2022-09-20T16:51:26.108Z,14.81
2022-09-20T16:53:54.943Z,13.71
2022-09-20T16:56:27.304Z,14.08
2022-09-20T17:00:22.246Z,14.14
2022-09-20T17:02:50.738Z,14.14
2022-09-20T17:05:18.203Z,13.08
2022-09-20T17:07:46.968Z,12.83
2022-09-20T17:10:14.645Z,12.39
2022-09-20T17:12:43.431Z,12.76
2022-09-20T17:15:13.221Z,12.81
2022-09-20T17:17:42.172Z,12.22
2022-09-20T17:20:09.994Z,12.27
2022-09-20T17:22:37.349Z,12.05
2022-09-20T17:25:05.964Z,12.03
2022-09-20T17:27:33.449Z,12.52
2022-09-20T17:30:02.264Z,12.54
2022-09-20T17:32:29.891Z,13.04
2022-09-20T17:34:57.533Z,12.82
2022-09-20T17:37:24.894Z,13.48
2022-09-20T17:39:52.577Z,12.41
2022-09-20T17:42:20.830Z,12.74
2022-09-20T17:44:48.169Z,12.25
2022-09-20T17:47:18.206Z,13.01
2022-09-20T17:49:46.344Z,12.70
2022-09-20T17:52:13.712Z,12.37
2022-09-20T17:54:42.359Z,12.36
2022-09-20T17:57:09.706Z,12.94
2022-09-20T17:59:37.129Z,12.17
2022-09-20T18:02:04.850Z,12.85
2022-09-20T18:04:32.535Z,12.25
2022-09-20T18:07:02.005Z,12.28
2022-09-20T18:09:29.408Z,11.78
2022-09-20T18:11:57.159Z,12.27
2022-09-20T18:14:27.645Z,11.99
2022-09-20T18:16:58.151Z,12.82
2022-09-20T18:19:32.534Z,11.49
2022-09-20T18:22:01.477Z,11.62
2022-09-20T18:24:30.107Z,11.66
2022-09-20T18:26:58.082Z,12.11
2022-09-20T18:29:25.438Z,12.22
2022-09-20T18:31:57.985Z,12.05
2022-09-20T18:34:31.986Z,11.51
2022-09-20T18:37:01.284Z,11.41
2022-09-20T18:39:32.630Z,10.98
2022-09-20T18:42:01.577Z,11.25
2022-09-20T18:44:32.321Z,10.86
2022-09-20T18:47:01.321Z,11.53
2022-09-20T18:49:30.493Z,10.78
2022-09-20T18:51:58.244Z,10.59
2022-09-20T18:54:30.216Z,10.79
2022-09-20T18:56:58.253Z,12.10
2022-09-20T18:59:27.612Z,11.96
2022-09-20T19:02:18.767Z,12.53
2022-09-20T19:05:08.682Z,12.71
2022-09-20T19:08:07.684Z,12.59
2022-09-20T19:10:46.832Z,11.11
2022-09-20T19:13:26.315Z,10.54
2022-09-20T19:16:16.615Z,11.85
2022-09-20T19:18:59.431Z,12.11
2022-09-20T19:21:54.479Z,12.10
2022-09-20T19:24:39.677Z,11.90
2022-09-20T19:27:09.018Z,11.94
2022-09-20T19:29:37.815Z,11.90
2022-09-20T19:32:06.191Z,11.85
2022-09-20T19:34:34.148Z,11.72
2022-09-20T19:37:24.156Z,11.51
2022-09-20T19:40:21.126Z,11.50
2022-09-20T19:43:13.506Z,11.28
2022-09-20T19:46:13.888Z,11.10
2022-09-20T19:48:56.551Z,11.06
2022-09-20T19:51:26.384Z,11.47
2022-09-20T19:53:55.463Z,11.48
2022-09-20T19:56:27.813Z,11.76
2022-09-20T19:58:56.411Z,11.52
2022-09-20T20:01:25.512Z,10.96
2022-09-20T20:03:54.845Z,10.64
2022-09-20T20:06:28.967Z,11.58
2022-09-20T20:09:09.284Z,11.79
2022-09-20T20:11:43.586Z,12.35
2022-09-20T20:14:15.506Z,12.49
2022-09-20T20:17:05.706Z,12.15
2022-09-20T20:20:07.419Z,11.31
2022-09-20T20:22:47.300Z,12.24
2022-09-20T20:25:28.290Z,12.15
2022-09-20T20:27:56.282Z,11.90
2022-09-20T20:30:24.301Z,12.21
2022-09-20T20:32:59.290Z,12.26
2022-09-20T20:35:27.098Z,10.90
2022-09-20T20:37:54.503Z,11.45
2022-09-20T20:40:22.063Z,12.18
2022-09-20T20:42:56.123Z,12.29
2022-09-20T20:45:24.111Z,12.14
2022-09-20T20:47:56.233Z,12.17
2022-09-20T20:50:23.756Z,12.66
2022-09-20T20:52:55.056Z,12.58
2022-09-20T20:55:23.587Z,12.23
2022-09-20T20:57:58.111Z,12.53
2022-09-20T21:00:26.227Z,12.26
2022-09-20T21:03:00.757Z,11.32
2022-09-20T21:05:29.405Z,11.73
2022-09-20T21:07:58.018Z,11.73
2022-09-20T21:10:25.771Z,11.81
2022-09-20T21:12:56.423Z,11.76
2022-09-20T21:15:23.780Z,11.76
2022-09-20T21:17:55.454Z,11.64
2022-09-20T21:20:23.148Z,11.30
2022-09-20T21:22:50.562Z,11.73
2022-09-20T21:25:17.936Z,11.25
2022-09-20T21:27:45.694Z,11.95
2022-09-20T21:30:13.721Z,10.56
2022-09-20T21:32:41.145Z,10.47
2022-09-20T21:35:09.083Z,11.25
2022-09-20T21:37:36.508Z,10.29
2022-09-20T21:40:04.284Z,10.21
2022-09-20T21:42:31.921Z,10.71
2022-09-20T21:44:59.311Z,10.67
2022-09-20T21:47:27.081Z,9.92
2022-09-20T21:49:55.034Z,9.87
2022-09-20T21:52:22.440Z,9.95
2022-09-20T21:54:51.112Z,10.59
2022-09-20T21:57:18.815Z,10.72
2022-09-20T21:59:46.385Z,10.00
2022-09-20T22:02:13.759Z,10.31
2022-09-20T22:04:42.776Z,9.84
2022-09-20T22:07:10.250Z,9.91
2022-09-20T22:09:37.992Z,10.11
2022-09-20T22:12:05.696Z,11.28
2022-09-20T22:14:35.094Z,10.40
2022-09-20T22:17:02.435Z,10.96
2022-09-20T22:19:31.338Z,10.91
2022-09-20T22:21:58.806Z,11.40
2022-09-20T22:24:26.215Z,11.47
2022-09-20T22:26:54.118Z,11.39
2022-09-20T22:29:22.112Z,11.29
2022-09-20T22:31:50.215Z,10.37
2022-09-20T22:34:22.199Z,11.03
2022-09-20T22:36:50.295Z,10.81
2022-09-20T22:39:18.356Z,10.96
2022-09-20T22:41:47.832Z,10.00
2022-09-20T22:44:15.313Z,10.68
2022-09-20T22:46:42.934Z,10.82
2022-09-20T22:49:10.335Z,10.91
2022-09-20T22:51:37.949Z,10.83
2022-09-20T22:54:08.358Z,11.10
2022-09-20T22:56:36.587Z,10.98
2022-09-20T22:59:05.521Z,11.12
2022-09-20T23:01:39.578Z,11.08
2022-09-20T23:04:09.490Z,10.92
2022-09-20T23:06:44.963Z,10.74
2022-09-20T23:09:13.728Z,10.68
2022-09-20T23:11:44.462Z,10.71
2022-09-20T23:14:14.264Z,10.89
2022-09-20T23:16:42.332Z,11.02
2022-09-20T23:19:10.439Z,11.20
2022-09-20T23:21:39.058Z,9.65
2022-09-20T23:24:09.181Z,9.46
2022-09-20T23:26:37.838Z,9.38
2022-09-20T23:29:15.906Z,9.33
2022-09-20T23:31:46.455Z,9.54
2022-09-20T23:34:15.887Z,9.24
2022-09-20T23:36:44.167Z,9.13
2022-09-20T23:39:11.979Z,8.79
2022-09-20T23:41:41.305Z,8.91
2022-09-20T23:44:10.523Z,9.03
2022-09-20T23:46:38.847Z,8.91
2022-09-20T23:49:06.752Z,8.93
2022-09-20T23:51:35.561Z,8.71
2022-09-20T23:54:03.869Z,9.19
2022-09-20T23:56:31.722Z,9.60
2022-09-20T23:58:59.354Z,9.59
